Maria Noelle — WDD9564 — position and weather

sailwx.info

Track history (hours):
 
Tides and Currents Weather Stations Pressure Air Temp Water Temp Dewpoint Dewpoint Depression Visibility Wind Speed Wind Dir Waves Ship Positions

Maria Noelle

Owner: MUROS INC, POINT PLEASANT, NJ. More information available from US FCC via Universal Licensing System and Coast Guard Vessel Documentation Center.

Last reported at 2017-Jul-07 22:37 UTC. Time now 2017-Jul-23 02:37 UTC.
Position N 39°58' W 073°57'.
Warning: this ship's position is 15 days out of date.

Length 26 m.

Type: Fishing. MMSI: 367313170.

Date/timePositionNaut miles runAvg speedWind from/ knotsBaromVisibWave heightAir tempDewpointWater temp
2017-Jul-07 22:37N 39°58' W 073°57'2 7.9
2017-Jul-07 22:19N 39°56' W 073°56'4 7.9
2017-Jul-07 21:51N 39°52' W 073°55'3 7.8
2017-Jul-07 21:28N 39°50' W 073°53'4 7.6
2017-Jul-07 20:58N 39°46' W 073°52'4 7.9
2017-Jul-07 20:30N 39°43' W 073°50'  
2017-Jul-05 08:30N 38°45' W 073°36'1 2.5
2017-Jul-05 08:00N 38°45' W 073°38'1 0.8
2017-Jul-05 06:53N 38°44' W 073°37'1 2.8
2017-Jul-05 06:29N 38°44' W 073°38'1 2.5
2017-Jul-05 06:00N 38°43' W 073°39'0 1.0
2017-Jul-05 05:30N 38°43' W 073°38'0 0.9
2017-Jul-05 05:00N 38°43' W 073°38'1 1.0
2017-Jul-05 04:27N 38°44' W 073°37'0 1.0
2017-Jul-05 04:00N 38°44' W 073°37'0 0.9
2017-Jul-05 03:30N 38°44' W 073°37'2 3.1
2017-Jul-05 02:43N 38°42' W 073°38'3 1.2
2017-Jul-05 00:28N 38°45' W 073°37'2 0.1
2017-Jul-04 13:35N 38°44' W 073°38'1 4.8
2017-Jul-04 13:20N 38°45' W 073°37'1 0.9
2017-Jul-04 12:13N 38°45' W 073°36'0 0.2
2017-Jul-04 11:58N 38°45' W 073°36'2 4.3
2017-Jul-04 11:30N 38°44' W 073°38'1 1.4
2017-Jul-04 10:50N 38°43' W 073°37'0 0.2
2017-Jul-04 10:26N 38°43' W 073°37'0 0.2
2017-Jul-04 09:59N 38°43' W 073°37'0 0.3
2017-Jul-04 09:29N 38°43' W 073°38'0 0.1
2017-Jul-04 08:59N 38°43' W 073°38'0 0.1
2017-Jul-04 07:08N 38°43' W 073°38'0 0.3
2017-Jul-04 06:59N 38°43' W 073°38'0 0.3
2017-Jul-04 06:29N 38°44' W 073°38'0 0.8
2017-Jul-04 06:00N 38°44' W 073°38'2 4.5
2017-Jul-04 05:30N 38°46' W 073°36'2 3.1
2017-Jul-04 05:00N 38°46' W 073°34'2 4.7
2017-Jul-04 04:30N 38°48' W 073°32'2 0.7
2017-Jul-04 02:16N 38°49' W 073°30'0 1.8
2017-Jul-04 02:00N 38°49' W 073°31'2 4.7
2017-Jul-04 01:30N 38°47' W 073°33'2 3.1
2017-Jul-04 01:00N 38°47' W 073°35'1 3.0
2017-Jul-04 00:30N 38°47' W 073°33'2 4.2
2017-Jul-03 23:56N 38°49' W 073°31'5 0.4
2017-Jul-03 13:07N 38°53' W 073°27'0 1.9
2017-Jul-03 12:59N 38°52' W 073°27'2 3.7
2017-Jul-03 12:30N 38°51' W 073°29'2 4.3
2017-Jul-03 12:00N 38°53' W 073°27'1 1.0
2017-Jul-03 11:28N 38°53' W 073°27'0 0.7
2017-Jul-03 10:48N 38°53' W 073°27'1 3.0
2017-Jul-03 10:29N 38°53' W 073°28'2 0.3
2017-Jul-03 02:35N 38°51' W 073°29'0 0.6
2017-Jul-03 02:29N 38°51' W 073°29'1 1.5
2017-Jul-03 01:58N 38°50' W 073°30'1 0.2
2017-Jul-02 20:31N 38°50' W 073°28'0 0.5
2017-Jul-02 20:19N 38°50' W 073°28'0 0.4
2017-Jul-02 19:55N 38°50' W 073°29'2 0.2
2017-Jul-02 09:50N 38°49' W 073°30'2 4.6
2017-Jul-02 09:28N 38°48' W 073°32'2 3.6
2017-Jul-02 08:57N 38°47' W 073°34'0 0.5
2017-Jul-02 08:30N 38°46' W 073°34'2 3.4
2017-Jul-02 08:00N 38°48' W 073°33'2 3.5
2017-Jul-02 07:30N 38°50' W 073°32'42 1.2
2017-Jun-30 21:32N 39°25' W 073°04'0 5.4
2017-Jun-30 21:29N 39°25' W 073°04'  
Track history (hours):
 
Tides and Currents Weather Stations Pressure Air Temp Water Temp Dewpoint Dewpoint Depression Visibility Wind Speed Wind Dir Waves Ship Positions

Maria Noelle

Owner: MUROS INC, POINT PLEASANT, NJ. More information available from US FCC via Universal Licensing System and Coast Guard Vessel Documentation Center.

Last reported at 2017-Jul-07 22:37 UTC. Time now 2017-Jul-23 02:37 UTC.
Position N 39°58' W 073°57'.
Warning: this ship's position is 15 days out of date.

Length 26 m.

Type: Fishing. MMSI: 367313170.

Date/timePositionNaut miles runAvg speedWind from/ knotsBaromVisibWave heightAir tempDewpointWater temp
2017-Jul-07 22:37N 39°58' W 073°57'2 7.9
2017-Jul-07 22:19N 39°56' W 073°56'4 7.9
2017-Jul-07 21:51N 39°52' W 073°55'3 7.8
2017-Jul-07 21:28N 39°50' W 073°53'4 7.6
2017-Jul-07 20:58N 39°46' W 073°52'4 7.9
2017-Jul-07 20:30N 39°43' W 073°50'  
2017-Jul-05 08:30N 38°45' W 073°36'1 2.5
2017-Jul-05 08:00N 38°45' W 073°38'1 0.8
2017-Jul-05 06:53N 38°44' W 073°37'1 2.8
2017-Jul-05 06:29N 38°44' W 073°38'1 2.5
2017-Jul-05 06:00N 38°43' W 073°39'0 1.0
2017-Jul-05 05:30N 38°43' W 073°38'0 0.9
2017-Jul-05 05:00N 38°43' W 073°38'1 1.0
2017-Jul-05 04:27N 38°44' W 073°37'0 1.0
2017-Jul-05 04:00N 38°44' W 073°37'0 0.9
2017-Jul-05 03:30N 38°44' W 073°37'2 3.1
2017-Jul-05 02:43N 38°42' W 073°38'3 1.2
2017-Jul-05 00:28N 38°45' W 073°37'2 0.1
2017-Jul-04 13:35N 38°44' W 073°38'1 4.8
2017-Jul-04 13:20N 38°45' W 073°37'1 0.9
2017-Jul-04 12:13N 38°45' W 073°36'0 0.2
2017-Jul-04 11:58N 38°45' W 073°36'2 4.3
2017-Jul-04 11:30N 38°44' W 073°38'1 1.4
2017-Jul-04 10:50N 38°43' W 073°37'0 0.2
2017-Jul-04 10:26N 38°43' W 073°37'0 0.2
2017-Jul-04 09:59N 38°43' W 073°37'0 0.3
2017-Jul-04 09:29N 38°43' W 073°38'0 0.1
2017-Jul-04 08:59N 38°43' W 073°38'0 0.1
2017-Jul-04 07:08N 38°43' W 073°38'0 0.3
2017-Jul-04 06:59N 38°43' W 073°38'0 0.3
2017-Jul-04 06:29N 38°44' W 073°38'0 0.8
2017-Jul-04 06:00N 38°44' W 073°38'2 4.5
2017-Jul-04 05:30N 38°46' W 073°36'2 3.1
2017-Jul-04 05:00N 38°46' W 073°34'2 4.7
2017-Jul-04 04:30N 38°48' W 073°32'2 0.7
2017-Jul-04 02:16N 38°49' W 073°30'0 1.8
2017-Jul-04 02:00N 38°49' W 073°31'2 4.7
2017-Jul-04 01:30N 38°47' W 073°33'2 3.1
2017-Jul-04 01:00N 38°47' W 073°35'1 3.0
2017-Jul-04 00:30N 38°47' W 073°33'2 4.2
2017-Jul-03 23:56N 38°49' W 073°31'5 0.4
2017-Jul-03 13:07N 38°53' W 073°27'0 1.9
2017-Jul-03 12:59N 38°52' W 073°27'2 3.7
2017-Jul-03 12:30N 38°51' W 073°29'2 4.3
2017-Jul-03 12:00N 38°53' W 073°27'1 1.0
2017-Jul-03 11:28N 38°53' W 073°27'0 0.7
2017-Jul-03 10:48N 38°53' W 073°27'1 3.0
2017-Jul-03 10:29N 38°53' W 073°28'2 0.3
2017-Jul-03 02:35N 38°51' W 073°29'0 0.6
2017-Jul-03 02:29N 38°51' W 073°29'1 1.5
2017-Jul-03 01:58N 38°50' W 073°30'1 0.2
2017-Jul-02 20:31N 38°50' W 073°28'0 0.5
2017-Jul-02 20:19N 38°50' W 073°28'0 0.4
2017-Jul-02 19:55N 38°50' W 073°29'2 0.2
2017-Jul-02 09:50N 38°49' W 073°30'2 4.6
2017-Jul-02 09:28N 38°48' W 073°32'2 3.6
2017-Jul-02 08:57N 38°47' W 073°34'0 0.5
2017-Jul-02 08:30N 38°46' W 073°34'2 3.4
2017-Jul-02 08:00N 38°48' W 073°33'2 3.5
2017-Jul-02 07:30N 38°50' W 073°32'42 1.2
2017-Jun-30 21:32N 39°25' W 073°04'0 5.4
2017-Jun-30 21:29N 39°25' W 073°04'  

Dump ship's entire track history